Time;durP1;ratioP1;P1;durP2;ratioP2;P2;SDS_P1;SDS_P2;PMS_P1;PMS_P2;Temp;Humidity;BMP_temperature;BMP_pressure;BME280_temperature;BME280_humidity;BME280_pressure;Samples;Min_cycle;Max_cycle;Signal;HPM_P1;HPM_P2
2023/04/04 00:00:14;;;;;;;;;;;8.00;80.60;;;-151.14;100.00;62537.16;5029319;28;20209;-87
2023/04/04 00:02:42;;;;;;;;;;;8.00;80.50;;;-151.14;100.00;62537.16;5029045;28;20098;-87
2023/04/04 00:05:10;;;;;;;;;;;8.00;80.70;;;-151.14;100.00;62537.16;5029307;28;19921;-87
2023/04/04 00:07:38;;;;;;;;;;;8.00;80.80;;;-151.14;100.00;62537.16;5029188;28;19928;-87
2023/04/04 00:10:08;;;;;;;;;;;8.00;80.60;;;-151.14;100.00;62537.16;4996481;28;19922;-87
2023/04/04 00:12:36;;;;;;;;;;;8.00;80.70;;;-151.14;100.00;62537.16;5012630;28;19922;-87
2023/04/04 00:15:05;;;;;;;;;;;8.00;80.80;;;-151.14;100.00;62537.16;4996313;28;19928;-87
2023/04/04 00:17:33;;;;;;;;;;;8.00;80.80;;;-151.14;100.00;62537.16;5028709;28;19939;-87
2023/04/04 00:20:03;;;;;;;;;;;8.00;80.30;;;-151.14;100.00;62537.16;5012532;28;19922;-88
2023/04/04 00:22:31;;;;;;;;;;;8.00;80.60;;;-151.14;100.00;62537.16;5012424;28;20209;-87
2023/04/04 00:24:58;;;;;;;;;;;8.00;80.80;;;-151.14;100.00;62537.16;4996172;28;19921;-87
2023/04/04 00:27:28;;;;;;;;;;;8.00;80.40;;;-151.14;100.00;62537.16;4994902;28;20116;-87
2023/04/04 00:29:56;;;;;;;;;;;8.00;80.60;;;-151.14;100.00;62537.16;4976721;28;19922;-88
2023/04/04 00:32:24;;;;;;;;;;;8.00;80.80;;;-151.14;100.00;62537.16;4976561;28;19961;-87
2023/04/04 00:34:52;;;;;;;;;;;8.00;80.70;;;-151.14;100.00;62537.16;4976575;28;19922;-88
2023/04/04 00:37:21;;;;;;;;;;;8.00;80.70;;;-151.14;100.00;62537.16;4992651;28;19936;-87
2023/04/04 00:39:49;;;;;;;;;;;7.90;80.70;;;-151.14;100.00;62537.16;4992714;28;19922;-87
2023/04/04 00:42:17;;;;;;;;;;;7.90;80.90;;;-151.14;100.00;62537.16;4976081;28;20217;-87
2023/04/04 00:44:47;;;;;;;;;;;7.90;80.90;;;-151.14;100.00;62537.16;4976512;28;19928;-87
2023/04/04 00:47:15;;;;;;;;;;;8.00;80.90;;;-151.14;100.00;62537.16;4976270;28;19922;-88
2023/04/04 00:49:44;;;;;;;;;;;7.90;80.70;;;-151.14;100.00;62537.16;4976581;28;19928;-88
2023/04/04 00:52:13;;;;;;;;;;;7.90;80.90;;;-151.14;100.00;62537.16;4976081;28;19928;-86
2023/04/04 00:54:41;;;;;;;;;;;7.90;80.90;;;-151.14;100.00;62537.16;4976272;28;19928;-86
2023/04/04 00:57:09;;;;;;;;;;;7.90;80.60;;;-151.14;100.00;62537.16;4992663;28;19921;-88
2023/04/04 00:59:37;;;;;;;;;;;7.90;80.60;;;-151.14;100.00;62537.16;5007153;28;19929;-87
2023/04/04 01:02:07;;;;;;;;;;;7.90;80.60;;;-151.14;100.00;62537.16;5028221;28;20093;-88
2023/04/04 01:04:35;;;;;;;;;;;7.90;80.30;;;-151.14;100.00;62537.16;4995703;28;20335;-88
2023/04/04 01:07:03;;;;;;;;;;;7.90;80.40;;;-151.14;100.00;62537.16;5011977;28;19928;-88
2023/04/04 01:09:31;;;;;;;;;;;7.90;80.90;;;-151.14;100.00;62537.16;5028336;28;19928;-87
2023/04/04 01:11:59;;;;;;;;;;;7.90;80.40;;;-151.14;100.00;62537.16;4995233;28;19921;-87
2023/04/04 01:14:29;;;;;;;;;;;7.90;80.40;;;-151.14;100.00;62537.16;4995559;28;19922;-88
2023/04/04 01:16:57;;;;;;;;;;;7.90;80.60;;;-151.14;100.00;62537.16;4995697;28;19925;-88
2023/04/04 01:19:32;;;;;;;;;;;7.80;80.60;;;-151.14;100.00;62537.16;4995156;28;19929;-88
2023/04/04 01:22:03;;;;;;;;;;;7.80;80.40;;;-151.14;100.00;62537.16;5011537;28;19921;-88
2023/04/04 01:24:33;;;;;;;;;;;7.90;81.00;;;-151.14;100.00;62537.16;4995537;28;19921;-88
2023/04/04 01:27:03;;;;;;;;;;;7.80;80.80;;;-151.14;100.00;62537.16;4995801;28;19928;-88
2023/04/04 01:29:33;;;;;;;;;;;7.80;80.80;;;-151.14;100.00;62537.16;4995391;28;20121;-88
2023/04/04 01:32:05;;;;;;;;;;;7.80;80.60;;;-151.14;100.00;62537.16;4994971;28;19921;-88
2023/04/04 01:34:38;;;;;;;;;;;7.80;80.80;;;-151.14;100.00;62537.16;5011616;28;20205;-88
2023/04/04 01:37:07;;;;;;;;;;;7.80;80.50;;;-151.14;100.00;62537.16;4995246;28;19921;-88
2023/04/04 01:39:38;;;;;;;;;;;7.80;80.80;;;-151.14;100.00;62537.16;4995108;28;19922;-88
2023/04/04 01:42:09;;;;;;;;;;;7.80;80.80;;;-151.14;100.00;62537.16;4995174;28;19922;-88
2023/04/04 01:44:37;;;;;;;;;;;7.80;80.70;;;-151.14;100.00;62537.16;4995024;28;19928;-88
2023/04/04 01:47:07;;;;;;;;;;;7.80;80.60;;;-151.14;100.00;62537.16;4994870;28;19922;-88
2023/04/04 01:49:35;;;;;;;;;;;7.80;80.60;;;-151.14;100.00;62537.16;4987135;28;19922;-88
2023/04/04 01:52:05;;;;;;;;;;;7.80;80.80;;;-151.14;100.00;62537.16;4991611;28;19922;-88
2023/04/04 01:54:35;;;;;;;;;;;7.80;80.80;;;-151.14;100.00;62537.16;5014794;28;19922;-88
2023/04/04 01:57:04;;;;;;;;;;;7.80;80.90;;;-151.14;100.00;62537.16;4995106;28;20193;-88
2023/04/04 01:59:33;;;;;;;;;;;7.80;80.90;;;-151.14;100.00;62537.16;4993899;28;19928;-88
2023/04/04 02:02:01;;;;;;;;;;;7.80;81.00;;;-151.14;100.00;62537.16;4994807;28;20235;-88
2023/04/04 02:04:30;;;;;;;;;;;7.80;81.10;;;-151.14;100.00;62537.16;4995067;28;19922;-89
2023/04/04 02:06:58;;;;;;;;;;;7.80;81.20;;;-151.14;100.00;62537.16;4995023;28;19922;-88
2023/04/04 02:09:27;;;;;;;;;;;7.80;81.30;;;-151.14;100.00;62537.16;4994735;28;20121;-88
2023/04/04 02:11:56;;;;;;;;;;;7.80;81.30;;;-151.14;100.00;62537.16;5010933;28;20213;-88
2023/04/04 02:14:24;;;;;;;;;;;7.80;81.40;;;-151.14;100.00;62537.16;4993967;28;19922;-88
2023/04/04 02:16:54;;;;;;;;;;;7.80;81.00;;;-151.14;100.00;62537.16;4994194;28;19922;-88
2023/04/04 02:19:23;;;;;;;;;;;7.80;81.00;;;-151.14;100.00;62537.16;4994724;28;19921;-88
2023/04/04 02:21:51;;;;;;;;;;;7.80;81.20;;;-151.14;100.00;62537.16;4994670;28;19928;-88
2023/04/04 02:24:19;;;;;;;;;;;7.80;81.10;;;-151.14;100.00;62537.16;4994469;28;19921;-89
2023/04/04 02:26:47;;;;;;;;;;;7.80;81.10;;;-151.14;100.00;62537.16;4994735;28;20072;-89
2023/04/04 02:29:15;;;;;;;;;;;7.80;81.30;;;-151.14;100.00;62537.16;5027337;28;19921;-88
2023/04/04 02:31:44;;;;;;;;;;;7.80;81.40;;;-151.14;100.00;62537.16;4994542;28;19921;-89
2023/04/04 02:34:14;;;;;;;;;;;7.80;81.30;;;-151.14;100.00;62537.16;4994486;28;19928;-89
2023/04/04 02:36:42;;;;;;;;;;;7.80;81.40;;;-151.14;100.00;62537.16;4994801;28;19922;-90
2023/04/04 02:39:10;;;;;;;;;;;7.80;81.20;;;-151.14;100.00;62537.16;5010810;28;19928;-89
2023/04/04 02:41:40;;;;;;;;;;;7.80;81.20;;;-151.14;100.00;62537.16;4994361;28;19921;-89
2023/04/04 02:44:09;;;;;;;;;;;7.80;81.10;;;-151.14;100.00;62537.16;5010880;28;19922;-89
2023/04/04 02:46:40;;;;;;;;;;;7.80;81.00;;;-151.14;100.00;62537.16;4994902;28;19921;-89
2023/04/04 02:49:11;;;;;;;;;;;7.80;81.10;;;-151.14;100.00;62537.16;4994639;28;20238;-90
2023/04/04 02:51:46;;;;;;;;;;;7.70;80.80;;;-151.14;100.00;62537.16;5010679;28;19921;-89
2023/04/04 02:54:14;;;;;;;;;;;7.80;80.70;;;-151.14;100.00;62537.16;4994458;28;19921;-89
2023/04/04 02:56:45;;;;;;;;;;;7.80;80.80;;;-151.14;100.00;62537.16;4994459;28;19921;-89
2023/04/04 02:59:13;;;;;;;;;;;7.80;80.90;;;-151.14;100.00;62537.16;5010761;28;19921;-90
2023/04/04 03:01:42;;;;;;;;;;;7.80;80.90;;;-151.14;100.00;62537.16;5026867;28;20376;-90
2023/04/04 03:04:10;;;;;;;;;;;7.70;80.90;;;-151.14;100.00;62537.16;4994386;28;19922;-90
2023/04/04 03:06:39;;;;;;;;;;;7.70;81.00;;;-151.14;100.00;62537.16;4994197;28;19957;-90
2023/04/04 03:09:08;;;;;;;;;;;7.80;80.80;;;-151.14;100.00;62537.16;4994418;28;19922;-89
2023/04/04 03:11:36;;;;;;;;;;;7.80;81.10;;;-151.14;100.00;62537.16;4984194;28;19972;-90
2023/04/04 03:14:06;;;;;;;;;;;7.80;80.90;;;-151.14;100.00;62537.16;4978220;28;19922;-89
2023/04/04 03:16:37;;;;;;;;;;;7.70;81.10;;;-151.14;100.00;62537.16;4978314;28;19944;-89
2023/04/04 03:19:06;;;;;;;;;;;7.70;80.90;;;-151.14;100.00;62537.16;4978256;28;20121;-90
2023/04/04 03:21:34;;;;;;;;;;;7.70;81.00;;;-151.14;100.00;62537.16;4978133;28;19921;-89
2023/04/04 03:24:02;;;;;;;;;;;7.70;80.90;;;-151.14;100.00;62537.16;4977948;28;20378;-90
2023/04/04 03:26:32;;;;;;;;;;;7.70;80.90;;;-151.14;100.00;62537.16;5010646;28;19922;-90
2023/04/04 03:29:03;;;;;;;;;;;7.70;81.10;;;-151.14;100.00;62537.16;5010829;28;19928;-90
2023/04/04 03:31:31;;;;;;;;;;;7.70;81.70;;;-151.14;100.00;62537.16;4993885;28;19921;-90
2023/04/04 03:33:59;;;;;;;;;;;7.70;80.80;;;-151.14;100.00;62537.16;4994273;28;19922;-90
2023/04/04 03:36:27;;;;;;;;;;;7.70;80.90;;;-151.14;100.00;62537.16;4977836;28;19985;-89
2023/04/04 03:39:04;;;;;;;;;;;7.70;80.90;;;-151.14;100.00;62537.16;4979640;28;20243;-89
2023/04/04 03:41:33;;;;;;;;;;;7.70;80.90;;;-151.14;100.00;62537.16;4996090;28;19922;-89
2023/04/04 03:44:01;;;;;;;;;;;7.70;80.90;;;-151.14;100.00;62537.16;4997020;28;19928;-90
2023/04/04 03:46:29;;;;;;;;;;;7.70;80.90;;;-151.14;100.00;62537.16;5013479;28;19921;-90
2023/04/04 03:48:59;;;;;;;;;;;7.70;80.70;;;-151.14;100.00;62537.16;5013523;28;19928;-89
2023/04/04 03:51:27;;;;;;;;;;;7.70;81.00;;;-151.14;100.00;62537.16;5029397;28;20132;-90
2023/04/04 03:53:56;;;;;;;;;;;7.70;81.00;;;-151.14;100.00;62537.16;5013459;28;19921;-89
2023/04/04 03:56:24;;;;;;;;;;;7.70;80.80;;;-151.14;100.00;62537.16;5013450;28;19921;-89
2023/04/04 03:58:55;;;;;;;;;;;7.70;81.00;;;-151.14;100.00;62537.16;5013304;28;20164;-89
2023/04/04 04:01:24;;;;;;;;;;;7.70;80.80;;;-151.14;100.00;62537.16;5011304;28;19944;-89
2023/04/04 04:03:52;;;;;;;;;;;7.70;81.00;;;-151.14;100.00;62537.16;4996934;28;19921;-89
2023/04/04 04:06:20;;;;;;;;;;;7.70;80.90;;;-151.14;100.00;62537.16;4996719;28;19922;-89
2023/04/04 04:08:49;;;;;;;;;;;7.70;80.90;;;-151.14;100.00;62537.16;5013182;28;19959;-89
2023/04/04 04:11:17;;;;;;;;;;;7.70;80.90;;;-151.14;100.00;62537.16;4996607;28;19921;-89
2023/04/04 04:13:45;;;;;;;;;;;7.70;80.80;;;-151.14;100.00;62537.16;4996764;28;19921;-89
2023/04/04 04:16:14;;;;;;;;;;;7.70;80.90;;;-151.14;100.00;62537.16;4996762;28;19928;-89
2023/04/04 04:18:43;;;;;;;;;;;7.70;80.80;;;-151.14;100.00;62537.16;4996721;28;19921;-89
2023/04/04 04:21:14;;;;;;;;;;;7.70;80.90;;;-151.14;100.00;62537.16;4995819;28;19921;-89
2023/04/04 04:23:44;;;;;;;;;;;7.70;80.90;;;-151.14;100.00;62537.16;4996650;28;19955;-89
2023/04/04 04:26:12;;;;;;;;;;;7.70;80.80;;;-151.14;100.00;62537.16;4996418;28;19922;-89
2023/04/04 04:28:41;;;;;;;;;;;7.70;80.70;;;-151.14;100.00;62537.16;4996521;28;19928;-89
2023/04/04 04:31:15;;;;;;;;;;;7.70;80.80;;;-151.14;100.00;62537.16;4996297;28;19928;-89
2023/04/04 04:33:48;;;;;;;;;;;7.70;80.80;;;-151.14;100.00;62537.16;4996289;28;19929;-88
2023/04/04 04:36:16;;;;;;;;;;;7.70;80.90;;;-151.14;100.00;62537.16;5012578;28;19944;-88
2023/04/04 04:38:53;;;;;;;;;;;7.70;80.80;;;-151.14;100.00;62537.16;4996350;28;19944;-90
2023/04/04 04:41:21;;;;;;;;;;;7.70;80.80;;;-151.14;100.00;62537.16;4996026;28;19921;-89
2023/04/04 04:43:52;;;;;;;;;;;7.70;80.80;;;-151.14;100.00;62537.16;5012728;28;19922;-89
2023/04/04 04:46:22;;;;;;;;;;;7.70;80.80;;;-151.14;100.00;62537.16;4996282;28;19928;-89
2023/04/04 04:48:51;;;;;;;;;;;7.60;80.60;;;-151.14;100.00;62537.16;4996194;28;19921;-89
2023/04/04 04:51:24;;;;;;;;;;;7.60;80.60;;;-151.14;100.00;62537.16;4995944;28;19928;-89
2023/04/04 04:53:54;;;;;;;;;;;7.60;80.70;;;-151.14;100.00;62537.16;4996257;28;19921;-89
2023/04/04 04:56:24;;;;;;;;;;;7.60;80.80;;;-151.14;100.00;62537.16;5012475;28;19922;-89
2023/04/04 04:58:56;;;;;;;;;;;7.70;80.80;;;-151.14;100.00;62537.16;5012476;28;19922;-89
2023/04/04 05:01:28;;;;;;;;;;;7.70;80.70;;;-151.14;100.00;62537.16;4995673;28;19926;-89
2023/04/04 05:03:57;;;;;;;;;;;7.60;80.60;;;-151.14;100.00;62537.16;4996157;28;19922;-90
2023/04/04 05:06:34;;;;;;;;;;;7.70;80.80;;;-151.14;100.00;62537.16;4995882;28;19922;-89
2023/04/04 05:09:02;;;;;;;;;;;7.60;80.60;;;-151.14;100.00;62537.16;5012033;28;20231;-89
2023/04/04 05:11:37;;;;;;;;;;;7.60;80.50;;;-151.14;100.00;62537.16;5011909;28;19944;-89
2023/04/04 05:14:07;;;;;;;;;;;7.60;80.60;;;-151.14;100.00;62537.16;4995851;28;20209;-89
2023/04/04 05:16:47;;;;;;;;;;;7.60;80.50;;;-151.14;100.00;62537.16;4995789;28;19928;-89
2023/04/04 05:19:15;;;;;;;;;;;7.60;80.60;;;-151.14;100.00;62537.16;4995940;28;19921;-89
2023/04/04 05:21:48;;;;;;;;;;;7.60;80.50;;;-151.14;100.00;62537.16;5011820;28;19921;-89
2023/04/04 05:24:28;;;;;;;;;;;7.60;80.60;;;-151.14;100.00;62537.16;4995738;28;19928;-90
2023/04/04 05:26:56;;;;;;;;;;;7.60;80.60;;;-151.14;100.00;62537.16;4995569;28;19922;-90
2023/04/04 05:29:24;;;;;;;;;;;7.70;80.70;;;-151.14;100.00;62537.16;4995531;28;19928;-89
2023/04/04 05:31:54;;;;;;;;;;;7.60;80.50;;;-151.14;100.00;62537.16;4995297;28;19922;-89
2023/04/04 05:34:25;;;;;;;;;;;7.70;80.60;;;-151.14;100.00;62537.16;5010997;28;20119;-89
2023/04/04 05:36:53;;;;;;;;;;;7.60;80.50;;;-151.14;100.00;62537.16;4995429;28;19921;-89
2023/04/04 05:39:21;;;;;;;;;;;7.60;80.60;;;-151.14;100.00;62537.16;4995706;28;19921;-89
2023/04/04 05:42:01;;;;;;;;;;;7.60;80.60;;;-151.14;100.00;62537.16;5015864;28;19922;-89
2023/04/04 05:44:35;;;;;;;;;;;7.60;80.70;;;-151.14;100.00;62537.16;5008912;28;19922;-89
2023/04/04 05:47:05;;;;;;;;;;;7.60;80.70;;;-151.14;100.00;62537.16;4991930;28;20245;-89
2023/04/04 05:49:33;;;;;;;;;;;7.70;80.90;;;-151.14;100.00;62537.16;4992046;28;19922;-89
2023/04/04 05:52:03;;;;;;;;;;;7.60;80.60;;;-151.14;100.00;62537.16;4991641;28;19922;-89
2023/04/04 05:54:32;;;;;;;;;;;7.60;80.70;;;-151.14;100.00;62537.16;4991990;28;19921;-89
2023/04/04 05:57:04;;;;;;;;;;;7.60;81.00;;;-151.14;100.00;62537.16;4992115;28;19928;-89
2023/04/04 05:59:40;;;;;;;;;;;7.60;80.90;;;-151.14;100.00;62537.16;4991937;28;20291;-89
2023/04/04 06:02:12;;;;;;;;;;;7.60;80.70;;;-151.14;100.00;62537.16;4991679;28;19928;-89
2023/04/04 06:04:44;;;;;;;;;;;7.60;80.80;;;-151.14;100.00;62537.16;4991950;28;20320;-89
2023/04/04 06:07:16;;;;;;;;;;;7.60;80.90;;;-151.14;100.00;62537.16;4975764;28;20120;-89
2023/04/04 06:09:44;;;;;;;;;;;7.60;81.00;;;-151.14;100.00;62537.16;4991874;28;19922;-89
2023/04/04 06:12:13;;;;;;;;;;;7.60;81.10;;;-151.14;100.00;62537.16;4991605;28;19928;-89
2023/04/04 06:14:43;;;;;;;;;;;7.60;81.00;;;-151.14;100.00;62537.16;4991727;28;19922;-90
2023/04/04 06:17:13;;;;;;;;;;;7.60;80.80;;;-151.14;100.00;62537.16;4991904;28;19922;-89
2023/04/04 06:19:41;;;;;;;;;;;7.60;80.80;;;-151.14;100.00;62537.16;4991668;28;19928;-90
2023/04/04 06:22:09;;;;;;;;;;;7.60;80.70;;;-151.14;100.00;62537.16;4991380;28;19922;-89
2023/04/04 06:24:40;;;;;;;;;;;7.60;80.70;;;-151.14;100.00;62537.16;4991846;28;19921;-89
2023/04/04 06:27:08;;;;;;;;;;;7.60;80.80;;;-151.14;100.00;62537.16;4991844;28;19929;-88
2023/04/04 06:29:37;;;;;;;;;;;7.60;80.90;;;-151.14;100.00;62537.16;4991607;28;20125;-89
2023/04/04 06:32:08;;;;;;;;;;;7.60;80.80;;;-151.14;100.00;62537.16;5007789;28;19922;-89
2023/04/04 06:34:44;;;;;;;;;;;7.60;80.60;;;-151.14;100.00;62537.16;5007966;28;19921;-89
2023/04/04 06:37:13;;;;;;;;;;;7.60;80.40;;;-151.14;100.00;62537.16;5007875;28;19928;-89
2023/04/04 06:39:56;;;;;;;;;;;7.60;80.20;;;-151.14;100.00;62537.16;4991483;28;19922;-89
2023/04/04 06:42:27;;;;;;;;;;;7.60;80.20;;;-151.14;100.00;62537.16;5006633;28;19928;-89
2023/04/04 06:44:58;;;;;;;;;;;7.60;80.00;;;-151.14;100.00;62537.16;4994904;28;19928;-89
2023/04/04 06:47:26;;;;;;;;;;;7.60;80.00;;;-151.14;100.00;62537.16;4997796;28;19928;-88
2023/04/04 06:49:56;;;;;;;;;;;7.60;80.00;;;-151.14;100.00;62537.16;4997770;28;20117;-90
2023/04/04 06:52:25;;;;;;;;;;;7.60;80.10;;;-151.14;100.00;62537.16;4997500;28;19928;-89
2023/04/04 06:54:53;;;;;;;;;;;7.60;80.20;;;-151.14;100.00;62537.16;4997564;28;19928;-90
2023/04/04 06:57:21;;;;;;;;;;;7.50;79.70;;;-151.14;100.00;62537.16;4997671;28;19936;-89
2023/04/04 06:59:55;;;;;;;;;;;7.50;79.90;;;-151.14;100.00;62537.16;4997542;28;19922;-89
2023/04/04 07:02:23;;;;;;;;;;;7.50;80.30;;;-151.14;100.00;62537.16;4997314;28;19921;-90
2023/04/04 07:04:52;;;;;;;;;;;7.50;80.00;;;-151.14;100.00;62537.16;4997638;28;19922;-90
2023/04/04 07:07:21;;;;;;;;;;;7.50;80.00;;;-151.14;100.00;62537.16;4997352;28;20248;-89
2023/04/04 07:09:49;;;;;;;;;;;7.50;80.40;;;-151.14;100.00;62537.16;4997300;28;19922;-89
2023/04/04 07:12:17;;;;;;;;;;;7.50;80.20;;;-151.14;100.00;62537.16;4997089;28;19929;-89
2023/04/04 07:14:45;;;;;;;;;;;7.50;80.30;;;-151.14;100.00;62537.16;5011527;28;19929;-90
2023/04/04 07:17:15;;;;;;;;;;;7.50;80.30;;;-151.14;100.00;62537.16;4978284;28;19922;-90
2023/04/04 07:19:43;;;;;;;;;;;7.60;80.30;;;-151.14;100.00;62537.16;4993338;28;20365;-89
2023/04/04 07:22:12;;;;;;;;;;;7.50;80.30;;;-151.14;100.00;62537.16;5029734;28;19921;-89
2023/04/04 07:24:42;;;;;;;;;;;7.50;80.20;;;-151.14;100.00;62537.16;5013298;28;20231;-90
2023/04/04 07:27:10;;;;;;;;;;;7.60;80.30;;;-151.14;100.00;62537.16;5029566;28;19929;-89
2023/04/04 07:29:38;;;;;;;;;;;7.60;80.10;;;-151.14;100.00;62537.16;5028900;28;19971;-89
2023/04/04 07:32:06;;;;;;;;;;;7.60;80.00;;;-151.14;100.00;62537.16;5027160;28;19921;-89
2023/04/04 07:34:35;;;;;;;;;;;7.60;80.20;;;-151.14;100.00;62537.16;4995095;28;19921;-89
2023/04/04 07:37:03;;;;;;;;;;;7.60;80.30;;;-151.14;100.00;62537.16;5009903;28;19982;-89
2023/04/04 07:39:31;;;;;;;;;;;7.60;80.00;;;-151.14;100.00;62537.16;5027481;28;19938;-89
2023/04/04 07:42:01;;;;;;;;;;;7.60;79.80;;;-151.14;100.00;62537.16;5011008;28;19921;-89
2023/04/04 07:44:29;;;;;;;;;;;7.60;79.80;;;-151.14;100.00;62537.16;5010883;28;19929;-89
2023/04/04 07:46:57;;;;;;;;;;;7.60;79.70;;;-151.14;100.00;62537.16;4994550;28;19929;-89
2023/04/04 07:49:26;;;;;;;;;;;7.60;79.80;;;-151.14;100.00;62537.16;5021685;28;19930;-89
2023/04/04 07:51:54;;;;;;;;;;;7.60;79.80;;;-151.14;100.00;62537.16;4985027;28;19929;-89
2023/04/04 07:54:22;;;;;;;;;;;7.60;79.60;;;-151.14;100.00;62537.16;5011025;28;19930;-90
2023/04/04 07:56:51;;;;;;;;;;;7.60;79.30;;;-151.14;100.00;62537.16;4993934;28;19926;-89
2023/04/04 07:59:20;;;;;;;;;;;7.50;79.00;;;-151.14;100.00;62537.16;5010785;28;19936;-90
2023/04/04 08:01:50;;;;;;;;;;;7.50;79.10;;;-151.14;100.00;62537.16;5010671;28;20213;-90
2023/04/04 08:04:18;;;;;;;;;;;7.60;78.80;;;-151.14;100.00;62537.16;4994325;28;19921;-89
2023/04/04 08:06:46;;;;;;;;;;;7.60;78.80;;;-151.14;100.00;62537.16;5026827;28;19930;-89
2023/04/04 08:09:15;;;;;;;;;;;7.60;78.60;;;-151.14;100.00;62537.16;4994213;28;19930;-89
2023/04/04 08:11:43;;;;;;;;;;;7.50;78.10;;;-151.14;100.00;62537.16;5007117;28;20440;-89
2023/04/04 08:14:12;;;;;;;;;;;7.50;78.00;;;-151.14;100.00;62537.16;4990916;28;19929;-88
2023/04/04 08:16:41;;;;;;;;;;;7.50;78.30;;;-151.14;100.00;62537.16;4990685;28;19928;-89
2023/04/04 08:19:10;;;;;;;;;;;7.50;77.90;;;-151.14;100.00;62537.16;5007085;28;19922;-89
2023/04/04 08:21:38;;;;;;;;;;;7.50;78.20;;;-151.14;100.00;62537.16;4974449;28;19926;-89
2023/04/04 08:24:07;;;;;;;;;;;7.50;77.60;;;-151.14;100.00;62537.16;4990828;28;20132;-89
2023/04/04 08:26:35;;;;;;;;;;;7.50;77.70;;;-151.14;100.00;62537.16;4990738;28;19929;-89
2023/04/04 08:29:04;;;;;;;;;;;7.50;77.60;;;-151.14;100.00;62537.16;4990934;28;19922;-89
2023/04/04 08:31:33;;;;;;;;;;;7.50;77.70;;;-151.14;100.00;62537.16;5006670;28;19929;-88
2023/04/04 08:34:03;;;;;;;;;;;7.50;77.50;;;-151.14;100.00;62537.16;4974562;28;19940;-89
2023/04/04 08:36:31;;;;;;;;;;;7.50;77.40;;;-151.14;100.00;62537.16;4990695;28;20444;-89
2023/04/04 08:39:00;;;;;;;;;;;7.40;77.10;;;-151.14;100.00;62537.16;5009889;28;19929;-89
2023/04/04 08:41:28;;;;;;;;;;;7.50;76.90;;;-151.14;100.00;62537.16;5010318;28;19936;-89
2023/04/04 08:43:56;;;;;;;;;;;7.50;76.90;;;-151.14;100.00;62537.16;4994052;28;19921;-90
2023/04/04 08:46:25;;;;;;;;;;;7.40;76.80;;;-151.14;100.00;62537.16;4993719;28;19929;-88
2023/04/04 08:48:53;;;;;;;;;;;7.40;76.80;;;-151.14;100.00;62537.16;5010309;28;19930;-89
2023/04/04 08:51:22;;;;;;;;;;;7.50;77.40;;;-151.14;100.00;62537.16;5010191;28;20112;-89
2023/04/04 08:53:51;;;;;;;;;;;7.40;76.90;;;-151.14;100.00;62537.16;4993859;28;19921;-90
2023/04/04 08:56:19;;;;;;;;;;;7.40;77.20;;;-151.14;100.00;62537.16;5010191;28;19921;-90
2023/04/04 08:58:47;;;;;;;;;;;7.40;77.30;;;-151.14;100.00;62537.16;5026476;28;19926;-90
2023/04/04 09:01:16;;;;;;;;;;;7.40;77.10;;;-151.14;100.00;62537.16;5026545;28;20363;-90
2023/04/04 09:03:44;;;;;;;;;;;7.50;77.20;;;-151.14;100.00;62537.16;4993685;28;19929;-90
2023/04/04 09:06:12;;;;;;;;;;;7.40;77.00;;;-151.14;100.00;62537.16;4993916;28;20289;-89
2023/04/04 09:08:42;;;;;;;;;;;7.40;77.60;;;-151.14;100.00;62537.16;5010131;28;19936;-90
2023/04/04 09:11:10;;;;;;;;;;;7.40;77.30;;;-151.14;100.00;62537.16;4993956;28;19928;-90
2023/04/04 09:13:40;;;;;;;;;;;7.40;76.90;;;-151.14;100.00;62537.16;4993380;28;22504;-89
2023/04/04 09:16:09;;;;;;;;;;;7.40;77.00;;;-151.14;100.00;62537.16;4993633;28;19928;-90
2023/04/04 09:18:37;;;;;;;;;;;7.40;76.90;;;-151.14;100.00;62537.16;4993915;28;20235;-90
2023/04/04 09:21:09;;;;;;;;;;;7.40;76.90;;;-151.14;100.00;62537.16;4993772;28;19921;-90
2023/04/04 09:23:37;;;;;;;;;;;7.40;77.00;;;-151.14;100.00;62537.16;5010157;28;19933;-90
2023/04/04 09:26:07;;;;;;;;;;;7.40;77.20;;;-151.14;100.00;62537.16;5010176;28;19964;-90
2023/04/04 09:28:35;;;;;;;;;;;7.40;77.20;;;-151.14;100.00;62537.16;5026368;28;20244;-90
2023/04/04 09:31:04;;;;;;;;;;;7.40;77.00;;;-151.14;100.00;62537.16;4993577;28;19922;-92
2023/04/04 09:33:33;;;;;;;;;;;7.40;76.90;;;-151.14;100.00;62537.16;5010128;28;19922;-91
2023/04/04 09:36:03;;;;;;;;;;;7.40;76.80;;;-151.14;100.00;62537.16;4993910;28;19967;-91
2023/04/04 09:38:31;;;;;;;;;;;7.40;76.60;;;-151.14;100.00;62537.16;5009940;28;19929;-91
2023/04/04 09:40:59;;;;;;;;;;;7.40;76.50;;;-151.14;100.00;62537.16;5009868;28;19928;-91
2023/04/04 09:43:29;;;;;;;;;;;7.40;76.70;;;-151.14;100.00;62537.16;5009860;28;19963;-90
2023/04/04 09:45:58;;;;;;;;;;;7.40;76.70;;;-151.14;100.00;62537.16;4993455;28;19936;-91
2023/04/04 09:48:27;;;;;;;;;;;7.30;76.60;;;-151.14;100.00;62537.16;4993415;28;20220;-91
2023/04/04 09:50:56;;;;;;;;;;;7.30;76.50;;;-151.14;100.00;62537.16;4993426;28;19921;-91
2023/04/04 09:53:24;;;;;;;;;;;7.30;76.40;;;-151.14;100.00;62537.16;4993375;28;19928;-91
2023/04/04 09:55:54;;;;;;;;;;;7.30;77.20;;;-151.14;100.00;62537.16;4993472;28;19929;-90
2023/04/04 09:58:24;;;;;;;;;;;7.30;77.00;;;-151.14;100.00;62537.16;4993688;28;19925;-91
2023/04/04 10:00:56;;;;;;;;;;;7.30;77.00;;;-151.14;100.00;62537.16;4993226;28;19929;-91
2023/04/04 10:03:25;;;;;;;;;;;7.30;76.80;;;-151.14;100.00;62537.16;5009573;28;19921;-91
2023/04/04 10:05:57;;;;;;;;;;;7.30;76.40;;;-151.14;100.00;62537.16;5010682;28;19921;-91
2023/04/04 10:08:26;;;;;;;;;;;7.30;76.60;;;-151.14;100.00;62537.16;4993112;28;19921;-90
2023/04/04 10:10:57;;;;;;;;;;;7.30;76.90;;;-151.14;100.00;62537.16;4992815;28;19927;-91
2023/04/04 10:13:27;;;;;;;;;;;7.30;77.40;;;-151.14;100.00;62537.16;4993272;28;19922;-91
2023/04/04 10:15:57;;;;;;;;;;;7.30;76.70;;;-151.14;100.00;62537.16;4992910;28;19940;-91
2023/04/04 10:18:26;;;;;;;;;;;7.30;76.70;;;-151.14;100.00;62537.16;4993158;28;19929;-90
2023/04/04 10:20:54;;;;;;;;;;;7.40;76.90;;;-151.14;100.00;62537.16;4992604;28;19921;-91
2023/04/04 10:23:24;;;;;;;;;;;7.40;77.10;;;-151.14;100.00;62537.16;4992946;28;19928;-91
2023/04/04 10:25:52;;;;;;;;;;;7.40;77.00;;;-151.14;100.00;62537.16;5009038;28;19928;-90
2023/04/04 10:28:20;;;;;;;;;;;7.40;77.00;;;-151.14;100.00;62537.16;5025502;28;19928;-91
2023/04/04 10:30:51;;;;;;;;;;;7.40;76.90;;;-151.14;100.00;62537.16;5009083;28;19930;-90
2023/04/04 10:33:23;;;;;;;;;;;7.40;76.90;;;-151.14;100.00;62537.16;5009243;28;19921;-91
2023/04/04 10:35:52;;;;;;;;;;;7.40;76.50;;;-151.14;100.00;62537.16;5025538;28;19921;-91
2023/04/04 10:38:21;;;;;;;;;;;7.40;77.00;;;-151.14;100.00;62537.16;5010329;28;19922;-91
2023/04/04 10:40:50;;;;;;;;;;;7.30;77.10;;;-151.14;100.00;62537.16;5008889;28;19928;-90
2023/04/04 10:43:18;;;;;;;;;;;7.40;77.00;;;-151.14;100.00;62537.16;5009037;28;20130;-89
2023/04/04 10:45:47;;;;;;;;;;;7.40;77.10;;;-151.14;100.00;62537.16;5025137;28;19936;-90
2023/04/04 10:48:15;;;;;;;;;;;7.40;76.50;;;-151.14;100.00;62537.16;5009010;28;20257;-89
2023/04/04 10:50:45;;;;;;;;;;;7.40;77.10;;;-151.14;100.00;62537.16;4992586;28;20562;-90
2023/04/04 10:53:13;;;;;;;;;;;7.40;76.40;;;-151.14;100.00;62537.16;5025365;28;19929;-91
2023/04/04 10:55:43;;;;;;;;;;;7.40;76.20;;;-151.14;100.00;62537.16;4992456;28;20247;-91
2023/04/04 10:58:11;;;;;;;;;;;7.40;75.80;;;-151.14;100.00;62537.16;4992665;28;19928;-91
2023/04/04 11:00:49;;;;;;;;;;;7.30;75.40;;;-151.14;100.00;62537.16;5010124;28;19921;-90
2023/04/04 11:03:18;;;;;;;;;;;7.30;75.40;;;-151.14;100.00;62537.16;5025028;28;19921;-90
2023/04/04 11:05:49;;;;;;;;;;;7.30;75.90;;;-151.14;100.00;62537.16;5025301;28;20514;-91
2023/04/04 11:08:18;;;;;;;;;;;7.30;76.50;;;-151.14;100.00;62537.16;5025063;28;19921;-90
2023/04/04 11:10:49;;;;;;;;;;;7.30;77.20;;;-151.14;100.00;62537.16;5008493;28;19927;-91